sensor_id;sensor_type;location;lat;lon;timestamp;P1;durP1;ratioP1;P2;durP2;ratioP2
6095;SDS011;25081;42.698;23.298;2023-12-29T00:01:45;131.35;;;71.28;;
6095;SDS011;25081;42.698;23.298;2023-12-29T00:03:56;126.55;;;71.57;;
6095;SDS011;25081;42.698;23.298;2023-12-29T00:06:07;141.12;;;73.30;;
6095;SDS011;25081;42.698;23.298;2023-12-29T00:08:17;137.03;;;72.97;;
6095;SDS011;25081;42.698;23.298;2023-12-29T00:10:28;134.25;;;72.32;;
6095;SDS011;25081;42.698;23.298;2023-12-29T00:12:39;137.40;;;69.60;;
6095;SDS011;25081;42.698;23.298;2023-12-29T00:14:49;135.90;;;72.10;;
6095;SDS011;25081;42.698;23.298;2023-12-29T00:17:00;142.22;;;67.72;;
6095;SDS011;25081;42.698;23.298;2023-12-29T00:19:10;129.23;;;73.80;;
6095;SDS011;25081;42.698;23.298;2023-12-29T00:21:21;137.25;;;70.10;;
6095;SDS011;25081;42.698;23.298;2023-12-29T00:23:31;133.15;;;64.95;;
6095;SDS011;25081;42.698;23.298;2023-12-29T00:25:42;117.65;;;60.83;;
6095;SDS011;25081;42.698;23.298;2023-12-29T00:27:53;132.00;;;69.40;;
6095;SDS011;25081;42.698;23.298;2023-12-29T00:30:04;146.02;;;62.30;;
6095;SDS011;25081;42.698;23.298;2023-12-29T00:32:16;135.85;;;61.80;;
6095;SDS011;25081;42.698;23.298;2023-12-29T00:34:26;118.22;;;63.35;;
6095;SDS011;25081;42.698;23.298;2023-12-29T00:36:37;125.55;;;63.20;;
6095;SDS011;25081;42.698;23.298;2023-12-29T00:38:50;118.33;;;58.25;;
6095;SDS011;25081;42.698;23.298;2023-12-29T00:41:01;126.05;;;57.98;;
6095;SDS011;25081;42.698;23.298;2023-12-29T00:43:12;133.85;;;64.03;;
6095;SDS011;25081;42.698;23.298;2023-12-29T00:45:22;112.72;;;57.93;;
6095;SDS011;25081;42.698;23.298;2023-12-29T00:47:33;123.95;;;58.15;;
6095;SDS011;25081;42.698;23.298;2023-12-29T00:49:43;115.82;;;58.28;;
6095;SDS011;25081;42.698;23.298;2023-12-29T00:51:54;129.97;;;59.05;;
6095;SDS011;25081;42.698;23.298;2023-12-29T00:54:04;119.50;;;57.80;;
6095;SDS011;25081;42.698;23.298;2023-12-29T00:56:15;108.30;;;56.68;;
6095;SDS011;25081;42.698;23.298;2023-12-29T00:58:25;109.72;;;55.90;;
6095;SDS011;25081;42.698;23.298;2023-12-29T01:00:36;116.37;;;60.25;;
6095;SDS011;25081;42.698;23.298;2023-12-29T01:02:47;111.05;;;55.45;;
6095;SDS011;25081;42.698;23.298;2023-12-29T01:04:57;115.52;;;58.68;;
6095;SDS011;25081;42.698;23.298;2023-12-29T01:07:08;124.00;;;63.40;;
6095;SDS011;25081;42.698;23.298;2023-12-29T01:09:18;115.60;;;60.55;;
6095;SDS011;25081;42.698;23.298;2023-12-29T01:11:29;120.50;;;60.80;;
6095;SDS011;25081;42.698;23.298;2023-12-29T01:13:39;110.60;;;62.15;;
6095;SDS011;25081;42.698;23.298;2023-12-29T01:15:50;122.80;;;59.80;;
6095;SDS011;25081;42.698;23.298;2023-12-29T01:18:00;120.30;;;61.88;;
6095;SDS011;25081;42.698;23.298;2023-12-29T01:20:11;126.82;;;67.08;;
6095;SDS011;25081;42.698;23.298;2023-12-29T01:22:22;118.50;;;63.48;;
6095;SDS011;25081;42.698;23.298;2023-12-29T01:24:33;119.17;;;61.20;;
6095;SDS011;25081;42.698;23.298;2023-12-29T01:26:43;111.52;;;60.38;;
6095;SDS011;25081;42.698;23.298;2023-12-29T01:28:54;113.15;;;60.03;;
6095;SDS011;25081;42.698;23.298;2023-12-29T01:31:04;110.08;;;62.00;;
6095;SDS011;25081;42.698;23.298;2023-12-29T01:33:15;105.92;;;57.78;;
6095;SDS011;25081;42.698;23.298;2023-12-29T01:35:25;114.97;;;60.85;;
6095;SDS011;25081;42.698;23.298;2023-12-29T01:37:36;105.20;;;59.45;;
6095;SDS011;25081;42.698;23.298;2023-12-29T01:39:46;113.10;;;57.13;;
6095;SDS011;25081;42.698;23.298;2023-12-29T01:41:57;109.27;;;57.20;;
6095;SDS011;25081;42.698;23.298;2023-12-29T01:44:17;113.20;;;58.38;;
6095;SDS011;25081;42.698;23.298;2023-12-29T01:46:29;105.12;;;55.00;;
6095;SDS011;25081;42.698;23.298;2023-12-29T01:48:39;107.00;;;57.90;;
6095;SDS011;25081;42.698;23.298;2023-12-29T01:50:49;107.32;;;57.15;;
6095;SDS011;25081;42.698;23.298;2023-12-29T01:53:00;119.62;;;58.28;;
6095;SDS011;25081;42.698;23.298;2023-12-29T01:55:11;94.37;;;51.05;;
6095;SDS011;25081;42.698;23.298;2023-12-29T01:57:21;107.67;;;53.42;;
6095;SDS011;25081;42.698;23.298;2023-12-29T01:59:32;109.75;;;54.63;;
6095;SDS011;25081;42.698;23.298;2023-12-29T02:01:42;94.70;;;52.75;;
6095;SDS011;25081;42.698;23.298;2023-12-29T02:03:53;95.53;;;51.42;;
6095;SDS011;25081;42.698;23.298;2023-12-29T02:06:04;87.27;;;49.38;;
6095;SDS011;25081;42.698;23.298;2023-12-29T02:08:14;95.07;;;48.28;;
6095;SDS011;25081;42.698;23.298;2023-12-29T02:10:25;87.50;;;50.15;;
6095;SDS011;25081;42.698;23.298;2023-12-29T02:12:36;92.37;;;47.98;;
6095;SDS011;25081;42.698;23.298;2023-12-29T02:14:46;72.08;;;42.73;;
6095;SDS011;25081;42.698;23.298;2023-12-29T02:16:59;82.78;;;46.98;;
6095;SDS011;25081;42.698;23.298;2023-12-29T02:19:13;85.22;;;47.93;;
6095;SDS011;25081;42.698;23.298;2023-12-29T02:21:24;80.87;;;47.23;;
6095;SDS011;25081;42.698;23.298;2023-12-29T02:23:35;102.92;;;50.03;;
6095;SDS011;25081;42.698;23.298;2023-12-29T02:25:45;93.97;;;50.23;;
6095;SDS011;25081;42.698;23.298;2023-12-29T02:27:57;87.25;;;50.75;;
6095;SDS011;25081;42.698;23.298;2023-12-29T02:30:11;90.40;;;49.48;;
6095;SDS011;25081;42.698;23.298;2023-12-29T02:32:20;88.60;;;48.63;;
6095;SDS011;25081;42.698;23.298;2023-12-29T02:34:31;92.47;;;47.53;;
6095;SDS011;25081;42.698;23.298;2023-12-29T02:36:41;92.25;;;50.85;;
6095;SDS011;25081;42.698;23.298;2023-12-29T02:38:52;104.83;;;56.28;;
6095;SDS011;25081;42.698;23.298;2023-12-29T02:41:03;104.25;;;54.48;;
6095;SDS011;25081;42.698;23.298;2023-12-29T02:43:13;95.83;;;52.60;;
6095;SDS011;25081;42.698;23.298;2023-12-29T02:45:24;101.92;;;52.70;;
6095;SDS011;25081;42.698;23.298;2023-12-29T02:47:34;102.92;;;52.53;;
6095;SDS011;25081;42.698;23.298;2023-12-29T02:49:45;100.65;;;52.45;;
6095;SDS011;25081;42.698;23.298;2023-12-29T02:51:55;91.65;;;49.20;;
6095;SDS011;25081;42.698;23.298;2023-12-29T02:54:06;107.43;;;51.77;;
6095;SDS011;25081;42.698;23.298;2023-12-29T02:56:16;88.30;;;50.03;;
6095;SDS011;25081;42.698;23.298;2023-12-29T02:58:27;96.80;;;50.35;;
6095;SDS011;25081;42.698;23.298;2023-12-29T03:00:37;86.85;;;48.20;;
6095;SDS011;25081;42.698;23.298;2023-12-29T03:02:48;92.27;;;46.15;;
6095;SDS011;25081;42.698;23.298;2023-12-29T03:04:59;90.40;;;44.88;;
6095;SDS011;25081;42.698;23.298;2023-12-29T03:07:09;91.20;;;49.75;;
6095;SDS011;25081;42.698;23.298;2023-12-29T03:09:20;103.53;;;49.40;;
6095;SDS011;25081;42.698;23.298;2023-12-29T03:11:30;89.25;;;48.85;;
6095;SDS011;25081;42.698;23.298;2023-12-29T03:13:41;92.40;;;47.50;;
6095;SDS011;25081;42.698;23.298;2023-12-29T03:15:51;96.78;;;47.55;;
6095;SDS011;25081;42.698;23.298;2023-12-29T03:18:02;92.60;;;48.85;;
6095;SDS011;25081;42.698;23.298;2023-12-29T03:20:13;82.35;;;44.55;;
6095;SDS011;25081;42.698;23.298;2023-12-29T03:22:23;80.20;;;43.25;;
6095;SDS011;25081;42.698;23.298;2023-12-29T03:24:34;87.22;;;45.85;;
6095;SDS011;25081;42.698;23.298;2023-12-29T03:26:44;80.85;;;46.02;;
6095;SDS011;25081;42.698;23.298;2023-12-29T03:28:55;90.03;;;47.98;;
6095;SDS011;25081;42.698;23.298;2023-12-29T03:31:05;87.15;;;47.43;;
6095;SDS011;25081;42.698;23.298;2023-12-29T03:33:16;85.72;;;44.70;;
6095;SDS011;25081;42.698;23.298;2023-12-29T03:35:26;79.92;;;44.08;;
6095;SDS011;25081;42.698;23.298;2023-12-29T03:37:37;87.20;;;46.98;;
6095;SDS011;25081;42.698;23.298;2023-12-29T03:39:47;95.15;;;47.98;;
6095;SDS011;25081;42.698;23.298;2023-12-29T03:41:58;79.75;;;46.28;;
6095;SDS011;25081;42.698;23.298;2023-12-29T03:44:08;98.33;;;50.33;;
6095;SDS011;25081;42.698;23.298;2023-12-29T03:46:19;92.85;;;48.08;;
6095;SDS011;25081;42.698;23.298;2023-12-29T03:48:29;83.07;;;47.43;;
6095;SDS011;25081;42.698;23.298;2023-12-29T03:50:40;90.53;;;48.55;;
6095;SDS011;25081;42.698;23.298;2023-12-29T03:52:50;91.12;;;47.75;;
6095;SDS011;25081;42.698;23.298;2023-12-29T03:55:01;92.30;;;49.53;;
6095;SDS011;25081;42.698;23.298;2023-12-29T03:57:11;88.00;;;46.80;;
6095;SDS011;25081;42.698;23.298;2023-12-29T03:59:22;85.62;;;46.30;;
6095;SDS011;25081;42.698;23.298;2023-12-29T04:01:34;85.15;;;48.25;;
6095;SDS011;25081;42.698;23.298;2023-12-29T04:03:44;88.05;;;47.38;;
6095;SDS011;25081;42.698;23.298;2023-12-29T04:05:54;84.55;;;44.60;;
6095;SDS011;25081;42.698;23.298;2023-12-29T04:08:06;94.07;;;49.55;;
6095;SDS011;25081;42.698;23.298;2023-12-29T04:10:19;81.10;;;43.63;;
6095;SDS011;25081;42.698;23.298;2023-12-29T04:12:40;87.00;;;43.70;;
6095;SDS011;25081;42.698;23.298;2023-12-29T04:14:50;81.85;;;45.10;;
6095;SDS011;25081;42.698;23.298;2023-12-29T04:17:01;80.85;;;44.05;;
6095;SDS011;25081;42.698;23.298;2023-12-29T04:19:12;83.97;;;45.00;;
6095;SDS011;25081;42.698;23.298;2023-12-29T04:21:22;85.83;;;44.95;;
6095;SDS011;25081;42.698;23.298;2023-12-29T04:23:33;89.50;;;46.60;;
6095;SDS011;25081;42.698;23.298;2023-12-29T04:25:43;81.22;;;46.60;;
6095;SDS011;25081;42.698;23.298;2023-12-29T04:27:54;78.28;;;44.88;;
6095;SDS011;25081;42.698;23.298;2023-12-29T04:30:05;82.08;;;45.33;;
6095;SDS011;25081;42.698;23.298;2023-12-29T04:32:17;84.42;;;46.63;;
6095;SDS011;25081;42.698;23.298;2023-12-29T04:34:27;83.85;;;45.52;;
6095;SDS011;25081;42.698;23.298;2023-12-29T04:36:38;78.42;;;44.83;;
6095;SDS011;25081;42.698;23.298;2023-12-29T04:38:48;88.30;;;45.92;;
6095;SDS011;25081;42.698;23.298;2023-12-29T04:40:59;87.57;;;47.53;;
6095;SDS011;25081;42.698;23.298;2023-12-29T04:43:09;78.75;;;42.45;;
6095;SDS011;25081;42.698;23.298;2023-12-29T04:45:20;69.75;;;41.85;;
6095;SDS011;25081;42.698;23.298;2023-12-29T04:47:30;81.65;;;44.65;;
6095;SDS011;25081;42.698;23.298;2023-12-29T04:49:41;92.00;;;45.58;;
6095;SDS011;25081;42.698;23.298;2023-12-29T04:51:51;86.90;;;44.10;;
6095;SDS011;25081;42.698;23.298;2023-12-29T04:54:02;85.25;;;46.80;;
6095;SDS011;25081;42.698;23.298;2023-12-29T04:56:13;89.95;;;46.60;;
6095;SDS011;25081;42.698;23.298;2023-12-29T04:58:23;82.22;;;44.38;;
6095;SDS011;25081;42.698;23.298;2023-12-29T05:00:33;94.03;;;44.45;;
6095;SDS011;25081;42.698;23.298;2023-12-29T05:02:44;88.00;;;43.42;;
6095;SDS011;25081;42.698;23.298;2023-12-29T05:04:54;74.42;;;44.85;;
6095;SDS011;25081;42.698;23.298;2023-12-29T05:07:08;75.62;;;43.90;;
6095;SDS011;25081;42.698;23.298;2023-12-29T05:09:16;78.07;;;44.60;;
6095;SDS011;25081;42.698;23.298;2023-12-29T05:11:27;75.95;;;44.85;;
6095;SDS011;25081;42.698;23.298;2023-12-29T05:13:38;77.00;;;43.60;;
6095;SDS011;25081;42.698;23.298;2023-12-29T05:15:50;83.25;;;47.43;;
6095;SDS011;25081;42.698;23.298;2023-12-29T05:18:01;79.45;;;46.35;;
6095;SDS011;25081;42.698;23.298;2023-12-29T05:20:12;87.22;;;46.40;;
6095;SDS011;25081;42.698;23.298;2023-12-29T05:22:22;101.20;;;48.85;;
6095;SDS011;25081;42.698;23.298;2023-12-29T05:24:33;82.00;;;46.75;;
6095;SDS011;25081;42.698;23.298;2023-12-29T05:26:43;84.97;;;46.20;;
6095;SDS011;25081;42.698;23.298;2023-12-29T05:28:54;95.87;;;46.63;;
6095;SDS011;25081;42.698;23.298;2023-12-29T05:31:04;86.00;;;46.75;;
6095;SDS011;25081;42.698;23.298;2023-12-29T05:33:15;90.80;;;46.58;;
6095;SDS011;25081;42.698;23.298;2023-12-29T05:35:25;97.55;;;44.80;;
6095;SDS011;25081;42.698;23.298;2023-12-29T05:37:36;79.72;;;44.05;;
6095;SDS011;25081;42.698;23.298;2023-12-29T05:39:47;81.35;;;45.98;;
6095;SDS011;25081;42.698;23.298;2023-12-29T05:41:57;81.40;;;44.38;;
6095;SDS011;25081;42.698;23.298;2023-12-29T05:44:08;84.70;;;45.78;;
6095;SDS011;25081;42.698;23.298;2023-12-29T05:46:19;91.12;;;49.18;;
6095;SDS011;25081;42.698;23.298;2023-12-29T05:48:30;84.80;;;46.60;;
6095;SDS011;25081;42.698;23.298;2023-12-29T05:50:41;87.45;;;46.05;;
6095;SDS011;25081;42.698;23.298;2023-12-29T05:52:52;84.95;;;47.53;;
6095;SDS011;25081;42.698;23.298;2023-12-29T05:55:03;87.22;;;47.83;;
6095;SDS011;25081;42.698;23.298;2023-12-29T05:57:14;90.50;;;46.65;;
6095;SDS011;25081;42.698;23.298;2023-12-29T06:01:54;86.35;;;47.67;;
6095;SDS011;25081;42.698;23.298;2023-12-29T06:04:05;81.63;;;45.67;;
6095;SDS011;25081;42.698;23.298;2023-12-29T06:06:16;98.30;;;48.42;;
6095;SDS011;25081;42.698;23.298;2023-12-29T06:08:26;91.17;;;47.95;;
6095;SDS011;25081;42.698;23.298;2023-12-29T06:10:37;79.67;;;44.83;;
6095;SDS011;25081;42.698;23.298;2023-12-29T06:12:48;95.83;;;48.25;;
6095;SDS011;25081;42.698;23.298;2023-12-29T06:14:59;83.97;;;45.03;;
6095;SDS011;25081;42.698;23.298;2023-12-29T06:17:10;90.47;;;47.48;;
6095;SDS011;25081;42.698;23.298;2023-12-29T06:19:20;82.08;;;47.00;;
6095;SDS011;25081;42.698;23.298;2023-12-29T06:21:31;85.22;;;46.40;;
6095;SDS011;25081;42.698;23.298;2023-12-29T06:23:42;88.95;;;48.92;;
6095;SDS011;25081;42.698;23.298;2023-12-29T06:25:53;89.95;;;46.60;;
6095;SDS011;25081;42.698;23.298;2023-12-29T06:28:04;89.32;;;48.52;;
6095;SDS011;25081;42.698;23.298;2023-12-29T06:30:15;86.15;;;44.63;;
6095;SDS011;25081;42.698;23.298;2023-12-29T06:32:26;84.95;;;46.65;;
6095;SDS011;25081;42.698;23.298;2023-12-29T06:34:37;75.78;;;44.60;;
6095;SDS011;25081;42.698;23.298;2023-12-29T06:36:48;90.75;;;47.85;;
6095;SDS011;25081;42.698;23.298;2023-12-29T06:38:58;74.80;;;44.67;;
6095;SDS011;25081;42.698;23.298;2023-12-29T06:41:09;89.37;;;48.25;;
6095;SDS011;25081;42.698;23.298;2023-12-29T06:43:20;80.77;;;46.75;;
6095;SDS011;25081;42.698;23.298;2023-12-29T06:45:31;77.62;;;44.85;;
6095;SDS011;25081;42.698;23.298;2023-12-29T06:47:42;82.47;;;46.53;;
6095;SDS011;25081;42.698;23.298;2023-12-29T06:49:53;82.02;;;45.80;;
6095;SDS011;25081;42.698;23.298;2023-12-29T06:52:04;87.35;;;49.05;;
6095;SDS011;25081;42.698;23.298;2023-12-29T06:54:17;79.10;;;48.73;;
6095;SDS011;25081;42.698;23.298;2023-12-29T06:56:28;91.37;;;48.95;;
6095;SDS011;25081;42.698;23.298;2023-12-29T06:58:39;74.53;;;42.83;;
6095;SDS011;25081;42.698;23.298;2023-12-29T07:00:50;74.47;;;42.95;;
6095;SDS011;25081;42.698;23.298;2023-12-29T07:03:01;72.47;;;42.50;;
6095;SDS011;25081;42.698;23.298;2023-12-29T07:05:12;63.98;;;39.10;;
6095;SDS011;25081;42.698;23.298;2023-12-29T07:07:22;63.52;;;41.40;;
6095;SDS011;25081;42.698;23.298;2023-12-29T07:09:33;68.90;;;40.90;;
6095;SDS011;25081;42.698;23.298;2023-12-29T07:11:48;66.50;;;39.88;;
6095;SDS011;25081;42.698;23.298;2023-12-29T07:13:59;70.37;;;39.27;;
6095;SDS011;25081;42.698;23.298;2023-12-29T07:16:10;65.78;;;41.40;;
6095;SDS011;25081;42.698;23.298;2023-12-29T07:18:21;66.45;;;40.52;;
6095;SDS011;25081;42.698;23.298;2023-12-29T07:20:31;67.78;;;43.05;;
6095;SDS011;25081;42.698;23.298;2023-12-29T07:22:42;69.85;;;42.60;;
6095;SDS011;25081;42.698;23.298;2023-12-29T07:24:53;65.35;;;43.73;;
6095;SDS011;25081;42.698;23.298;2023-12-29T07:27:05;68.27;;;41.90;;
6095;SDS011;25081;42.698;23.298;2023-12-29T07:29:16;66.80;;;46.93;;
6095;SDS011;25081;42.698;23.298;2023-12-29T07:31:27;66.00;;;45.83;;
6095;SDS011;25081;42.698;23.298;2023-12-29T07:33:38;75.33;;;45.63;;
6095;SDS011;25081;42.698;23.298;2023-12-29T07:35:48;68.00;;;46.63;;
6095;SDS011;25081;42.698;23.298;2023-12-29T07:37:59;64.97;;;45.20;;
6095;SDS011;25081;42.698;23.298;2023-12-29T07:40:11;68.90;;;47.80;;
6095;SDS011;25081;42.698;23.298;2023-12-29T07:42:22;74.30;;;48.37;;
6095;SDS011;25081;42.698;23.298;2023-12-29T07:44:33;63.87;;;46.67;;
6095;SDS011;25081;42.698;23.298;2023-12-29T07:46:44;68.70;;;48.63;;
6095;SDS011;25081;42.698;23.298;2023-12-29T07:48:55;67.33;;;45.23;;
6095;SDS011;25081;42.698;23.298;2023-12-29T07:51:07;66.80;;;45.70;;
6095;SDS011;25081;42.698;23.298;2023-12-29T07:53:17;62.10;;;45.30;;
6095;SDS011;25081;42.698;23.298;2023-12-29T07:55:28;67.63;;;47.80;;
6095;SDS011;25081;42.698;23.298;2023-12-29T07:57:38;72.97;;;50.57;;
6095;SDS011;25081;42.698;23.298;2023-12-29T07:59:49;78.40;;;54.80;;
6095;SDS011;25081;42.698;23.298;2023-12-29T08:01:59;80.23;;;51.30;;
6095;SDS011;25081;42.698;23.298;2023-12-29T08:04:10;71.13;;;49.30;;
6095;SDS011;25081;42.698;23.298;2023-12-29T08:06:20;75.57;;;48.40;;
6095;SDS011;25081;42.698;23.298;2023-12-29T08:08:31;71.23;;;48.87;;
6095;SDS011;25081;42.698;23.298;2023-12-29T08:10:41;69.97;;;47.80;;
6095;SDS011;25081;42.698;23.298;2023-12-29T08:12:52;67.60;;;46.60;;
6095;SDS011;25081;42.698;23.298;2023-12-29T08:15:03;67.73;;;46.03;;
6095;SDS011;25081;42.698;23.298;2023-12-29T08:17:15;69.70;;;46.40;;
6095;SDS011;25081;42.698;23.298;2023-12-29T08:19:26;65.60;;;47.47;;
6095;SDS011;25081;42.698;23.298;2023-12-29T08:21:36;72.60;;;48.07;;
6095;SDS011;25081;42.698;23.298;2023-12-29T08:23:47;66.27;;;47.53;;
6095;SDS011;25081;42.698;23.298;2023-12-29T08:25:57;85.07;;;49.17;;
6095;SDS011;25081;42.698;23.298;2023-12-29T08:28:08;72.30;;;50.80;;
6095;SDS011;25081;42.698;23.298;2023-12-29T08:30:18;68.67;;;45.23;;
6095;SDS011;25081;42.698;23.298;2023-12-29T08:32:29;65.83;;;46.93;;
6095;SDS011;25081;42.698;23.298;2023-12-29T08:34:40;71.23;;;46.30;;
6095;SDS011;25081;42.698;23.298;2023-12-29T08:36:51;61.57;;;45.77;;
6095;SDS011;25081;42.698;23.298;2023-12-29T08:39:01;61.70;;;45.27;;
6095;SDS011;25081;42.698;23.298;2023-12-29T08:41:14;60.73;;;44.37;;
6095;SDS011;25081;42.698;23.298;2023-12-29T08:43:25;63.23;;;46.93;;
6095;SDS011;25081;42.698;23.298;2023-12-29T08:45:35;68.10;;;45.63;;
6095;SDS011;25081;42.698;23.298;2023-12-29T08:47:46;74.50;;;50.70;;
6095;SDS011;25081;42.698;23.298;2023-12-29T08:49:56;63.47;;;46.93;;
6095;SDS011;25081;42.698;23.298;2023-12-29T08:52:07;63.53;;;47.50;;
6095;SDS011;25081;42.698;23.298;2023-12-29T08:54:18;64.10;;;47.73;;
6095;SDS011;25081;42.698;23.298;2023-12-29T08:56:28;67.63;;;47.47;;
6095;SDS011;25081;42.698;23.298;2023-12-29T08:58:39;66.37;;;47.30;;
6095;SDS011;25081;42.698;23.298;2023-12-29T09:00:49;65.83;;;47.33;;
6095;SDS011;25081;42.698;23.298;2023-12-29T09:03:00;69.97;;;48.37;;
6095;SDS011;25081;42.698;23.298;2023-12-29T09:05:10;67.77;;;46.07;;
6095;SDS011;25081;42.698;23.298;2023-12-29T09:07:21;65.40;;;49.80;;
6095;SDS011;25081;42.698;23.298;2023-12-29T09:09:31;66.67;;;48.60;;
6095;SDS011;25081;42.698;23.298;2023-12-29T09:11:42;58.47;;;46.87;;
6095;SDS011;25081;42.698;23.298;2023-12-29T09:13:53;61.00;;;45.27;;
6095;SDS011;25081;42.698;23.298;2023-12-29T09:16:03;66.87;;;50.60;;
6095;SDS011;25081;42.698;23.298;2023-12-29T09:18:15;66.93;;;48.27;;
6095;SDS011;25081;42.698;23.298;2023-12-29T09:20:25;68.90;;;47.67;;
6095;SDS011;25081;42.698;23.298;2023-12-29T09:22:36;69.90;;;49.97;;
6095;SDS011;25081;42.698;23.298;2023-12-29T09:24:47;65.73;;;48.20;;
6095;SDS011;25081;42.698;23.298;2023-12-29T09:26:57;76.97;;;51.30;;
6095;SDS011;25081;42.698;23.298;2023-12-29T09:29:08;73.03;;;49.30;;
6095;SDS011;25081;42.698;23.298;2023-12-29T09:31:18;71.03;;;45.87;;
6095;SDS011;25081;42.698;23.298;2023-12-29T09:33:29;65.33;;;48.00;;
6095;SDS011;25081;42.698;23.298;2023-12-29T09:35:39;67.50;;;46.40;;
6095;SDS011;25081;42.698;23.298;2023-12-29T09:37:49;66.97;;;46.03;;
6095;SDS011;25081;42.698;23.298;2023-12-29T09:40:00;63.53;;;44.83;;
6095;SDS011;25081;42.698;23.298;2023-12-29T09:42:12;66.40;;;47.90;;
6095;SDS011;25081;42.698;23.298;2023-12-29T09:44:21;62.73;;;46.37;;
6095;SDS011;25081;42.698;23.298;2023-12-29T09:46:32;70.70;;;50.87;;
6095;SDS011;25081;42.698;23.298;2023-12-29T09:48:42;63.60;;;48.53;;
6095;SDS011;25081;42.698;23.298;2023-12-29T09:50:53;72.93;;;52.37;;
6095;SDS011;25081;42.698;23.298;2023-12-29T09:53:04;67.93;;;51.00;;
6095;SDS011;25081;42.698;23.298;2023-12-29T09:55:14;69.43;;;52.60;;
6095;SDS011;25081;42.698;23.298;2023-12-29T09:57:25;74.20;;;55.80;;
6095;SDS011;25081;42.698;23.298;2023-12-29T09:59:36;72.33;;;54.37;;
6095;SDS011;25081;42.698;23.298;2023-12-29T10:01:46;73.33;;;57.00;;
6095;SDS011;25081;42.698;23.298;2023-12-29T10:03:56;79.60;;;56.20;;
6095;SDS011;25081;42.698;23.298;2023-12-29T10:06:07;81.43;;;57.20;;
6095;SDS011;25081;42.698;23.298;2023-12-29T10:08:17;77.90;;;55.30;;
6095;SDS011;25081;42.698;23.298;2023-12-29T10:10:28;84.70;;;57.93;;
6095;SDS011;25081;42.698;23.298;2023-12-29T10:12:38;77.20;;;54.80;;
6095;SDS011;25081;42.698;23.298;2023-12-29T10:14:55;87.50;;;58.30;;
6095;SDS011;25081;42.698;23.298;2023-12-29T10:17:02;89.03;;;57.70;;
6095;SDS011;25081;42.698;23.298;2023-12-29T10:19:13;86.73;;;56.03;;
6095;SDS011;25081;42.698;23.298;2023-12-29T10:21:25;95.43;;;60.30;;
6095;SDS011;25081;42.698;23.298;2023-12-29T10:23:36;91.33;;;54.80;;
6095;SDS011;25081;42.698;23.298;2023-12-29T10:25:46;86.77;;;54.20;;
6095;SDS011;25081;42.698;23.298;2023-12-29T10:27:57;92.17;;;58.10;;
6095;SDS011;25081;42.698;23.298;2023-12-29T10:30:09;89.70;;;57.53;;
6095;SDS011;25081;42.698;23.298;2023-12-29T10:32:21;98.40;;;57.07;;
6095;SDS011;25081;42.698;23.298;2023-12-29T10:34:31;96.08;;;57.38;;
6095;SDS011;25081;42.698;23.298;2023-12-29T10:36:47;97.33;;;57.03;;
6095;SDS011;25081;42.698;23.298;2023-12-29T10:39:05;99.70;;;58.43;;
6095;SDS011;25081;42.698;23.298;2023-12-29T10:41:16;89.93;;;54.90;;
6095;SDS011;25081;42.698;23.298;2023-12-29T10:43:26;95.40;;;57.67;;
6095;SDS011;25081;42.698;23.298;2023-12-29T10:45:37;96.05;;;57.15;;
6095;SDS011;25081;42.698;23.298;2023-12-29T10:47:47;90.00;;;53.93;;
6095;SDS011;25081;42.698;23.298;2023-12-29T10:49:59;94.13;;;57.30;;
6095;SDS011;25081;42.698;23.298;2023-12-29T10:52:13;75.70;;;52.80;;
6095;SDS011;25081;42.698;23.298;2023-12-29T10:54:23;86.30;;;55.67;;
6095;SDS011;25081;42.698;23.298;2023-12-29T10:56:34;76.93;;;52.90;;
6095;SDS011;25081;42.698;23.298;2023-12-29T10:58:44;81.33;;;53.73;;
6095;SDS011;25081;42.698;23.298;2023-12-29T11:00:55;90.80;;;54.23;;
6095;SDS011;25081;42.698;23.298;2023-12-29T11:03:06;79.90;;;55.20;;
6095;SDS011;25081;42.698;23.298;2023-12-29T11:05:16;83.73;;;55.53;;
6095;SDS011;25081;42.698;23.298;2023-12-29T11:07:31;75.80;;;53.80;;
6095;SDS011;25081;42.698;23.298;2023-12-29T11:09:45;80.50;;;55.33;;
6095;SDS011;25081;42.698;23.298;2023-12-29T11:11:56;80.80;;;51.13;;
6095;SDS011;25081;42.698;23.298;2023-12-29T11:14:07;73.63;;;51.13;;
6095;SDS011;25081;42.698;23.298;2023-12-29T11:16:19;73.00;;;49.07;;
6095;SDS011;25081;42.698;23.298;2023-12-29T11:18:30;75.67;;;49.80;;
6095;SDS011;25081;42.698;23.298;2023-12-29T11:20:41;85.33;;;51.83;;
6095;SDS011;25081;42.698;23.298;2023-12-29T11:22:51;76.60;;;50.63;;
6095;SDS011;25081;42.698;23.298;2023-12-29T11:25:03;81.17;;;55.30;;
6095;SDS011;25081;42.698;23.298;2023-12-29T11:27:15;75.97;;;52.37;;
6095;SDS011;25081;42.698;23.298;2023-12-29T11:29:26;72.67;;;48.60;;
6095;SDS011;25081;42.698;23.298;2023-12-29T11:31:40;81.57;;;50.60;;
6095;SDS011;25081;42.698;23.298;2023-12-29T11:33:52;80.90;;;49.30;;
6095;SDS011;25081;42.698;23.298;2023-12-29T11:36:02;76.83;;;50.23;;
6095;SDS011;25081;42.698;23.298;2023-12-29T11:38:17;77.27;;;51.50;;
6095;SDS011;25081;42.698;23.298;2023-12-29T11:40:30;85.17;;;52.27;;
6095;SDS011;25081;42.698;23.298;2023-12-29T11:42:40;87.00;;;51.87;;
6095;SDS011;25081;42.698;23.298;2023-12-29T11:44:51;89.13;;;53.90;;
6095;SDS011;25081;42.698;23.298;2023-12-29T11:47:02;93.77;;;55.57;;
6095;SDS011;25081;42.698;23.298;2023-12-29T11:49:12;93.50;;;56.00;;
6095;SDS011;25081;42.698;23.298;2023-12-29T11:51:29;88.50;;;55.03;;
6095;SDS011;25081;42.698;23.298;2023-12-29T11:53:40;84.27;;;50.47;;
6095;SDS011;25081;42.698;23.298;2023-12-29T11:55:50;81.80;;;51.50;;
6095;SDS011;25081;42.698;23.298;2023-12-29T11:58:01;78.17;;;51.30;;
6095;SDS011;25081;42.698;23.298;2023-12-29T12:00:13;77.10;;;52.50;;
6095;SDS011;25081;42.698;23.298;2023-12-29T12:02:27;96.13;;;57.27;;
6095;SDS011;25081;42.698;23.298;2023-12-29T12:04:38;92.40;;;53.63;;
6095;SDS011;25081;42.698;23.298;2023-12-29T12:06:49;78.87;;;51.90;;
6095;SDS011;25081;42.698;23.298;2023-12-29T12:09:16;84.00;;;51.07;;
6095;SDS011;25081;42.698;23.298;2023-12-29T12:11:42;80.30;;;48.33;;
6095;SDS011;25081;42.698;23.298;2023-12-29T12:13:53;82.70;;;50.93;;
6095;SDS011;25081;42.698;23.298;2023-12-29T12:16:04;82.10;;;53.00;;
6095;SDS011;25081;42.698;23.298;2023-12-29T12:18:15;80.20;;;51.20;;
6095;SDS011;25081;42.698;23.298;2023-12-29T12:20:25;94.67;;;52.70;;
6095;SDS011;25081;42.698;23.298;2023-12-29T12:22:36;83.43;;;52.37;;
6095;SDS011;25081;42.698;23.298;2023-12-29T12:24:47;80.80;;;49.30;;
6095;SDS011;25081;42.698;23.298;2023-12-29T12:26:57;83.73;;;49.90;;
6095;SDS011;25081;42.698;23.298;2023-12-29T12:29:08;93.70;;;50.10;;
6095;SDS011;25081;42.698;23.298;2023-12-29T12:31:18;76.87;;;49.77;;
6095;SDS011;25081;42.698;23.298;2023-12-29T12:33:29;76.40;;;49.73;;
6095;SDS011;25081;42.698;23.298;2023-12-29T12:35:39;72.03;;;49.23;;
6095;SDS011;25081;42.698;23.298;2023-12-29T12:38:07;76.33;;;49.20;;
6095;SDS011;25081;42.698;23.298;2023-12-29T12:40:26;85.73;;;51.87;;
6095;SDS011;25081;42.698;23.298;2023-12-29T12:42:39;86.57;;;49.67;;
6095;SDS011;25081;42.698;23.298;2023-12-29T12:45:05;85.40;;;49.87;;
6095;SDS011;25081;42.698;23.298;2023-12-29T12:47:06;86.40;;;53.50;;